Time;durP1;ratioP1;P1;durP2;ratioP2;P2;SDS_P1;SDS_P2;PMS_P1;PMS_P2;Temp;Humidity;BMP_temperature;BMP_pressure;BME280_temperature;BME280_humidity;BME280_pressure;Samples;Min_cycle;Max_cycle;Signal;HPM_P1;HPM_P2
2023/12/18 00:00:05;;;;;;;;;;;;;;;;;;5097893;28;20361;-80
2023/12/18 00:02:30;;;;;;;;;;;;;;;;;;5097648;28;19916;-80
2023/12/18 00:04:55;;;;;;;;;;;;;;;;;;5098601;28;19908;-80
2023/12/18 00:07:20;;;;;;;;;;;;;;;;;;5099425;28;19912;-79
2023/12/18 00:09:45;;;;;;;;;;;;;;;;;;5097781;28;19914;-80
2023/12/18 00:12:10;;;;;;;;;;;;;;;;;;5097149;28;19948;-79
2023/12/18 00:14:36;;;;;;;;;;;;;;;;;;5096948;28;20297;-79
2023/12/18 00:17:01;;;;;;;;;;;;;;;;;;5098417;28;19919;-79
2023/12/18 00:19:26;;;;;;;;;;;;;;;;;;5097221;28;19908;-80
2023/12/18 00:21:51;;;;;;;;;;;;;;;;;;5097559;28;19939;-79
2023/12/18 00:24:18;;;;;;;;;;;;;;;;;;5094684;28;19914;-80
2023/12/18 00:26:44;;;;;;;;;;;;;;;;;;5095206;28;19908;-80
2023/12/18 00:29:09;;;;;;;;;;;;;;;;;;5094089;28;19916;-79
2023/12/18 00:31:34;;;;;;;;;;;;;;;;;;5096087;28;19977;-79
2023/12/18 00:33:59;;;;;;;;;;;;;;;;;;5096448;28;20362;-80
2023/12/18 00:36:24;;;;;;;;;;;;;;;;;;5094587;28;20170;-80
2023/12/18 00:38:50;;;;;;;;;;;;;;;;;;5096058;28;20332;-79
2023/12/18 00:41:15;;;;;;;;;;;;;;;;;;5094553;28;20185;-79
2023/12/18 00:43:40;;;;;;;;;;;;;;;;;;5094077;28;19908;-79
2023/12/18 00:46:05;;;;;;;;;;;;;;;;;;5095925;28;19958;-80
2023/12/18 00:48:31;;;;;;;;;;;;;;;;;;5094127;28;20038;-80
2023/12/18 00:50:56;;;;;;;;;;;;;;;;;;5095791;28;19915;-79
2023/12/18 00:53:21;;;;;;;;;;;;;;;;;;5095913;28;19987;-79
2023/12/18 00:55:46;;;;;;;;;;;;;;;;;;5095159;28;19947;-79
2023/12/18 00:58:11;;;;;;;;;;;;;;;;;;5095433;28;19984;-79
2023/12/18 01:00:36;;;;;;;;;;;;;;;;;;5096473;28;19908;-79
2023/12/18 01:03:01;;;;;;;;;;;;;;;;;;5096153;28;19916;-80
2023/12/18 01:05:26;;;;;;;;;;;;;;;;;;5095820;28;19912;-79
2023/12/18 01:07:51;;;;;;;;;;;;;;;;;;5094640;28;19908;-80
2023/12/18 01:10:17;;;;;;;;;;;;;;;;;;5095104;28;19915;-79
2023/12/18 01:12:42;;;;;;;;;;;;;;;;;;5094449;28;20003;-80
2023/12/18 01:15:07;;;;;;;;;;;;;;;;;;5092812;28;19995;-78
2023/12/18 01:17:32;;;;;;;;;;;;;;;;;;5094999;28;20284;-79
2023/12/18 01:19:57;;;;;;;;;;;;;;;;;;5094811;28;20369;-79
2023/12/18 01:22:22;;;;;;;;;;;;;;;;;;5096455;28;20404;-79
2023/12/18 01:24:47;;;;;;;;;;;;;;;;;;5095198;28;20410;-79
2023/12/18 01:27:13;;;;;;;;;;;;;;;;;;5096224;28;19908;-79
2023/12/18 01:29:38;;;;;;;;;;;;;;;;;;5096340;28;19930;-78
2023/12/18 01:32:03;;;;;;;;;;;;;;;;;;5096295;28;19908;-79
2023/12/18 01:34:28;;;;;;;;;;;;;;;;;;5095171;28;19915;-79
2023/12/18 01:36:53;;;;;;;;;;;;;;;;;;5095017;28;20297;-79
2023/12/18 01:39:18;;;;;;;;;;;;;;;;;;5094715;28;19908;-79
2023/12/18 01:41:43;;;;;;;;;;;;;;;;;;5094497;28;19916;-79
2023/12/18 01:44:09;;;;;;;;;;;;;;;;;;5094711;28;19958;-79
2023/12/18 01:46:34;;;;;;;;;;;;;;;;;;5094752;28;19908;-78
2023/12/18 01:48:59;;;;;;;;;;;;;;;;;;5094384;28;19908;-78
2023/12/18 01:51:24;;;;;;;;;;;;;;;;;;5094230;28;19927;-79
2023/12/18 01:53:49;;;;;;;;;;;;;;;;;;5094642;28;19912;-78
2023/12/18 01:56:14;;;;;;;;;;;;;;;;;;5094572;28;19912;-79
2023/12/18 01:58:39;;;;;;;;;;;;;;;;;;5094529;28;19961;-79
2023/12/18 02:01:04;;;;;;;;;;;;;;;;;;5094321;28;19908;-78
2023/12/18 02:03:29;;;;;;;;;;;;;;;;;;5095415;28;20285;-79
2023/12/18 02:05:54;;;;;;;;;;;;;;;;;;5094225;28;19909;-78
2023/12/18 02:08:19;;;;;;;;;;;;;;;;;;5094271;28;19915;-79
2023/12/18 02:10:45;;;;;;;;;;;;;;;;;;5095137;28;19908;-78
2023/12/18 02:13:10;;;;;;;;;;;;;;;;;;5095366;28;19912;-79
2023/12/18 02:15:35;;;;;;;;;;;;;;;;;;5094086;28;19991;-78
2023/12/18 02:18:00;;;;;;;;;;;;;;;;;;5093927;28;20297;-79
2023/12/18 02:20:25;;;;;;;;;;;;;;;;;;5093652;28;19908;-79
2023/12/18 02:22:51;;;;;;;;;;;;;;;;;;5093878;28;19959;-79
2023/12/18 02:25:16;;;;;;;;;;;;;;;;;;5096424;28;20330;-79
2023/12/18 02:27:41;;;;;;;;;;;;;;;;;;5096343;28;20289;-79
2023/12/18 02:30:06;;;;;;;;;;;;;;;;;;5096690;28;19954;-78
2023/12/18 02:32:31;;;;;;;;;;;;;;;;;;5095538;28;19912;-79
2023/12/18 02:34:56;;;;;;;;;;;;;;;;;;5095265;28;19915;-79
2023/12/18 02:37:23;;;;;;;;;;;;;;;;;;5096030;28;20002;-79
2023/12/18 02:39:48;;;;;;;;;;;;;;;;;;5094593;28;20373;-79
2023/12/18 02:42:13;;;;;;;;;;;;;;;;;;5094131;28;20370;-78
2023/12/18 02:44:38;;;;;;;;;;;;;;;;;;5095327;28;19961;-79
2023/12/18 02:47:03;;;;;;;;;;;;;;;;;;5093802;28;19912;-78
2023/12/18 02:49:28;;;;;;;;;;;;;;;;;;5093493;28;19915;-79
2023/12/18 02:51:53;;;;;;;;;;;;;;;;;;5094797;28;19912;-78
2023/12/18 02:54:19;;;;;;;;;;;;;;;;;;5093734;28;19908;-78
2023/12/18 02:56:44;;;;;;;;;;;;;;;;;;5093726;28;20358;-79
2023/12/18 02:59:09;;;;;;;;;;;;;;;;;;5095152;28;19915;-79
2023/12/18 03:01:35;;;;;;;;;;;;;;;;;;5093422;28;19908;-78
2023/12/18 03:04:00;;;;;;;;;;;;;;;;;;5094978;28;19908;-79
2023/12/18 03:06:26;;;;;;;;;;;;;;;;;;5094528;28;19915;-79
2023/12/18 03:08:51;;;;;;;;;;;;;;;;;;5093239;28;20408;-78
2023/12/18 03:11:16;;;;;;;;;;;;;;;;;;5093215;28;20016;-78
2023/12/18 03:13:41;;;;;;;;;;;;;;;;;;5094718;28;19952;-79
2023/12/18 03:16:08;;;;;;;;;;;;;;;;;;5093478;28;20002;-78
2023/12/18 03:18:33;;;;;;;;;;;;;;;;;;5094317;28;19908;-79
2023/12/18 03:20:58;;;;;;;;;;;;;;;;;;5092850;28;20039;-79
2023/12/18 03:23:23;;;;;;;;;;;;;;;;;;5093033;28;20007;-79
2023/12/18 03:25:48;;;;;;;;;;;;;;;;;;5094501;28;19908;-78
2023/12/18 03:28:13;;;;;;;;;;;;;;;;;;5092984;28;19908;-78
2023/12/18 03:30:38;;;;;;;;;;;;;;;;;;5094389;28;19908;-79
2023/12/18 03:33:03;;;;;;;;;;;;;;;;;;5102669;28;19908;-80
2023/12/18 03:35:28;;;;;;;;;;;;;;;;;;5105207;28;20428;-79
2023/12/18 03:37:53;;;;;;;;;;;;;;;;;;5103543;28;19908;-80
2023/12/18 03:40:19;;;;;;;;;;;;;;;;;;5103945;28;19931;-79
2023/12/18 03:42:44;;;;;;;;;;;;;;;;;;5104569;28;19981;-80
2023/12/18 03:45:09;;;;;;;;;;;;;;;;;;5102526;28;19908;-79
2023/12/18 03:47:35;;;;;;;;;;;;;;;;;;5104836;28;19908;-79
2023/12/18 03:50:00;;;;;;;;;;;;;;;;;;5102342;28;19912;-80
2023/12/18 03:52:25;;;;;;;;;;;;;;;;;;5103445;28;19922;-79
2023/12/18 03:54:50;;;;;;;;;;;;;;;;;;5102414;28;19908;-78
2023/12/18 03:57:15;;;;;;;;;;;;;;;;;;5104650;28;19908;-79
2023/12/18 03:59:40;;;;;;;;;;;;;;;;;;5104468;28;19961;-80
2023/12/18 04:02:05;;;;;;;;;;;;;;;;;;5101771;28;20532;-80
2023/12/18 04:04:31;;;;;;;;;;;;;;;;;;5103638;28;19951;-80
2023/12/18 04:06:56;;;;;;;;;;;;;;;;;;5101786;28;19908;-79
2023/12/18 04:09:21;;;;;;;;;;;;;;;;;;5102364;28;19934;-80
2023/12/18 04:11:46;;;;;;;;;;;;;;;;;;5102277;28;19930;-80
2023/12/18 04:14:11;;;;;;;;;;;;;;;;;;5102193;28;19912;-80
2023/12/18 04:16:36;;;;;;;;;;;;;;;;;;5101857;28;19909;-79
2023/12/18 04:19:02;;;;;;;;;;;;;;;;;;5101939;28;19908;-78
2023/12/18 04:21:27;;;;;;;;;;;;;;;;;;5103502;28;19908;-80
2023/12/18 04:23:52;;;;;;;;;;;;;;;;;;5102897;28;20374;-79
2023/12/18 04:26:17;;;;;;;;;;;;;;;;;;5102018;28;19908;-80
2023/12/18 04:28:42;;;;;;;;;;;;;;;;;;5102183;28;19933;-79
2023/12/18 04:31:07;;;;;;;;;;;;;;;;;;5101534;28;19994;-80
2023/12/18 04:33:32;;;;;;;;;;;;;;;;;;5101938;28;20011;-79
2023/12/18 04:35:57;;;;;;;;;;;;;;;;;;5102048;28;20267;-80
2023/12/18 04:38:23;;;;;;;;;;;;;;;;;;5102231;28;19908;-79
2023/12/18 04:40:48;;;;;;;;;;;;;;;;;;5101115;28;19908;-80
2023/12/18 04:43:13;;;;;;;;;;;;;;;;;;5101790;28;19912;-79
2023/12/18 04:45:38;;;;;;;;;;;;;;;;;;5103338;28;19971;-79
2023/12/18 04:48:03;;;;;;;;;;;;;;;;;;5102441;28;19908;-79
2023/12/18 04:50:28;;;;;;;;;;;;;;;;;;5101401;28;19912;-80
2023/12/18 04:52:53;;;;;;;;;;;;;;;;;;5101750;28;19916;-79
2023/12/18 04:55:18;;;;;;;;;;;;;;;;;;5101607;28;19908;-79
2023/12/18 04:57:43;;;;;;;;;;;;;;;;;;5102067;28;19964;-79
2023/12/18 05:00:09;;;;;;;;;;;;;;;;;;5101567;28;19946;-80
2023/12/18 05:02:36;;;;;;;;;;;;;;;;;;5100961;28;20003;-79
2023/12/18 05:05:01;;;;;;;;;;;;;;;;;;5100752;28;19926;-80
2023/12/18 05:07:27;;;;;;;;;;;;;;;;;;5100943;28;19943;-78
2023/12/18 05:09:52;;;;;;;;;;;;;;;;;;5100645;28;19908;-79
2023/12/18 05:12:17;;;;;;;;;;;;;;;;;;5102703;28;19999;-80
2023/12/18 05:14:42;;;;;;;;;;;;;;;;;;5100467;28;19908;-79
2023/12/18 05:17:07;;;;;;;;;;;;;;;;;;5102633;28;19908;-80
2023/12/18 05:19:32;;;;;;;;;;;;;;;;;;5100210;28;19964;-79
2023/12/18 05:21:57;;;;;;;;;;;;;;;;;;5099968;28;19912;-79
2023/12/18 05:24:23;;;;;;;;;;;;;;;;;;5100607;28;19908;-79
2023/12/18 05:26:48;;;;;;;;;;;;;;;;;;5101726;28;19908;-80
2023/12/18 05:29:13;;;;;;;;;;;;;;;;;;5099712;28;19915;-80
2023/12/18 05:31:38;;;;;;;;;;;;;;;;;;5101607;28;20281;-80
2023/12/18 05:34:03;;;;;;;;;;;;;;;;;;5091677;28;19908;-78
2023/12/18 05:36:30;;;;;;;;;;;;;;;;;;5084388;28;20423;-78
2023/12/18 05:38:55;;;;;;;;;;;;;;;;;;5092074;28;19908;-78
2023/12/18 05:41:20;;;;;;;;;;;;;;;;;;5091903;28;20262;-78
2023/12/18 05:43:45;;;;;;;;;;;;;;;;;;5090609;28;20285;-78
2023/12/18 05:46:11;;;;;;;;;;;;;;;;;;5090682;28;19923;-78
2023/12/18 05:48:36;;;;;;;;;;;;;;;;;;5090563;28;19915;-78
2023/12/18 05:51:01;;;;;;;;;;;;;;;;;;5090408;28;19909;-78
2023/12/18 05:53:26;;;;;;;;;;;;;;;;;;5090649;28;19916;-78
2023/12/18 05:55:51;;;;;;;;;;;;;;;;;;5090531;28;20262;-78
2023/12/18 05:58:16;;;;;;;;;;;;;;;;;;5090531;28;19908;-78
2023/12/18 06:00:41;;;;;;;;;;;;;;;;;;5091660;28;20369;-78
2023/12/18 06:03:07;;;;;;;;;;;;;;;;;;5100898;28;19999;-79
2023/12/18 06:05:32;;;;;;;;;;;;;;;;;;5103111;28;20018;-80
2023/12/18 06:07:57;;;;;;;;;;;;;;;;;;5104808;28;19908;-80
2023/12/18 06:10:22;;;;;;;;;;;;;;;;;;5102785;28;19908;-80
2023/12/18 06:12:49;;;;;;;;;;;;;;;;;;5102623;28;19987;-79
2023/12/18 06:15:15;;;;;;;;;;;;;;;;;;5103565;28;19908;-80
2023/12/18 06:17:40;;;;;;;;;;;;;;;;;;5104253;28;19914;-79
2023/12/18 06:20:05;;;;;;;;;;;;;;;;;;5103674;28;19998;-79
2023/12/18 06:22:30;;;;;;;;;;;;;;;;;;5102765;28;19955;-80
2023/12/18 06:24:55;;;;;;;;;;;;;;;;;;5101893;28;19915;-79
2023/12/18 06:27:20;;;;;;;;;;;;;;;;;;5103841;28;20006;-80
2023/12/18 06:29:45;;;;;;;;;;;;;;;;;;5103114;28;19915;-80
2023/12/18 06:32:11;;;;;;;;;;;;;;;;;;5103142;28;19951;-80
2023/12/18 06:34:36;;;;;;;;;;;;;;;;;;5101652;28;20285;-80
2023/12/18 06:37:01;;;;;;;;;;;;;;;;;;5101642;28;19912;-79
2023/12/18 06:39:26;;;;;;;;;;;;;;;;;;5102951;28;19931;-79
2023/12/18 06:41:51;;;;;;;;;;;;;;;;;;5101495;28;20290;-78
2023/12/18 06:44:16;;;;;;;;;;;;;;;;;;5103201;28;20366;-80
2023/12/18 06:46:41;;;;;;;;;;;;;;;;;;5103600;28;19988;-79
2023/12/18 06:49:06;;;;;;;;;;;;;;;;;;5102721;28;19983;-80
2023/12/18 06:51:31;;;;;;;;;;;;;;;;;;5102869;28;19965;-80
2023/12/18 06:53:58;;;;;;;;;;;;;;;;;;5084124;28;21978;-79
2023/12/18 06:56:23;;;;;;;;;;;;;;;;;;5103213;28;19925;-80
2023/12/18 06:58:48;;;;;;;;;;;;;;;;;;5101510;28;19908;-79
2023/12/18 07:01:13;;;;;;;;;;;;;;;;;;5102548;28;19908;-80
2023/12/18 07:03:39;;;;;;;;;;;;;;;;;;5101175;28;19912;-79
2023/12/18 07:06:04;;;;;;;;;;;;;;;;;;5101752;28;20426;-79
2023/12/18 07:08:29;;;;;;;;;;;;;;;;;;5102171;28;19953;-79
2023/12/18 07:10:55;;;;;;;;;;;;;;;;;;5102577;28;19908;-79
2023/12/18 07:13:20;;;;;;;;;;;;;;;;;;5101292;28;19934;-80
2023/12/18 07:15:45;;;;;;;;;;;;;;;;;;5101140;28;20320;-80
2023/12/18 07:18:13;;;;;;;;;;;;;;;;;;5100538;28;20284;-79
2023/12/18 07:20:38;;;;;;;;;;;;;;;;;;5101908;28;19930;-80
2023/12/18 07:23:03;;;;;;;;;;;;;;;;;;5100321;28;19912;-80
2023/12/18 07:25:29;;;;;;;;;;;;;;;;;;5102532;28;19938;-80
2023/12/18 07:27:54;;;;;;;;;;;;;;;;;;5101736;28;19909;-79
2023/12/18 07:30:20;;;;;;;;;;;;;;;;;;5100861;28;19908;-80
2023/12/18 07:32:45;;;;;;;;;;;;;;;;;;5101740;28;19915;-78
2023/12/18 07:35:10;;;;;;;;;;;;;;;;;;5100679;28;19908;-80
2023/12/18 07:37:35;;;;;;;;;;;;;;;;;;5100178;28;19908;-78
2023/12/18 07:40:01;;;;;;;;;;;;;;;;;;5100180;28;19954;-79
2023/12/18 07:42:26;;;;;;;;;;;;;;;;;;5101301;28;19911;-80
2023/12/18 07:44:51;;;;;;;;;;;;;;;;;;5099828;28;19958;-79
2023/12/18 07:47:16;;;;;;;;;;;;;;;;;;5100877;28;19908;-79
2023/12/18 07:49:41;;;;;;;;;;;;;;;;;;5101331;28;19912;-79
2023/12/18 07:52:06;;;;;;;;;;;;;;;;;;5100557;28;19943;-79
2023/12/18 07:54:32;;;;;;;;;;;;;;;;;;5099032;28;20025;-80
2023/12/18 07:56:57;;;;;;;;;;;;;;;;;;5101129;28;19952;-80
2023/12/18 07:59:22;;;;;;;;;;;;;;;;;;5100710;28;20368;-79
2023/12/18 08:01:47;;;;;;;;;;;;;;;;;;5101134;28;19908;-79
2023/12/18 08:04:12;;;;;;;;;;;;;;;;;;5098705;28;19912;-80
2023/12/18 08:06:37;;;;;;;;;;;;;;;;;;5100968;28;19908;-79
2023/12/18 08:09:02;;;;;;;;;;;;;;;;;;5100360;28;19909;-80
2023/12/18 08:11:27;;;;;;;;;;;;;;;;;;5098528;28;19915;-80
2023/12/18 08:13:52;;;;;;;;;;;;;;;;;;5098533;28;20277;-80
2023/12/18 08:16:18;;;;;;;;;;;;;;;;;;5099606;28;20286;-79
2023/12/18 08:18:44;;;;;;;;;;;;;;;;;;5098769;28;19915;-79
2023/12/18 08:21:09;;;;;;;;;;;;;;;;;;5099028;28;20389;-79
2023/12/18 08:23:34;;;;;;;;;;;;;;;;;;5100318;28;20369;-80
2023/12/18 08:25:59;;;;;;;;;;;;;;;;;;5098283;28;19909;-80
2023/12/18 08:28:25;;;;;;;;;;;;;;;;;;5100360;28;19915;-80
2023/12/18 08:30:50;;;;;;;;;;;;;;;;;;5094278;28;19922;-78
2023/12/18 08:33:15;;;;;;;;;;;;;;;;;;5092815;28;19915;-78
2023/12/18 08:35:40;;;;;;;;;;;;;;;;;;5091702;28;19908;-78
2023/12/18 08:38:05;;;;;;;;;;;;;;;;;;5091359;28;19908;-78
2023/12/18 08:40:31;;;;;;;;;;;;;;;;;;5092735;28;20353;-79
2023/12/18 08:42:56;;;;;;;;;;;;;;;;;;5091184;28;19912;-78
2023/12/18 08:45:22;;;;;;;;;;;;;;;;;;5091347;28;19912;-78
2023/12/18 08:47:47;;;;;;;;;;;;;;;;;;5092428;28;20350;-78
2023/12/18 08:50:12;;;;;;;;;;;;;;;;;;5092350;28;19947;-78
2023/12/18 08:52:37;;;;;;;;;;;;;;;;;;5092390;28;19970;-78
2023/12/18 08:55:02;;;;;;;;;;;;;;;;;;5091215;28;19908;-78
2023/12/18 08:57:28;;;;;;;;;;;;;;;;;;5091203;28;19920;-78
2023/12/18 08:59:54;;;;;;;;;;;;;;;;;;5092122;28;20356;-78
2023/12/18 09:02:19;;;;;;;;;;;;;;;;;;5090834;28;19963;-78
2023/12/18 09:04:44;;;;;;;;;;;;;;;;;;5091152;28;19951;-78
2023/12/18 09:07:09;;;;;;;;;;;;;;;;;;5091042;28;19914;-78
2023/12/18 09:09:36;;;;;;;;;;;;;;;;;;5090977;28;19908;-78
2023/12/18 09:12:01;;;;;;;;;;;;;;;;;;5090843;28;19912;-78
2023/12/18 09:14:26;;;;;;;;;;;;;;;;;;5092269;28;19915;-78
2023/12/18 09:16:51;;;;;;;;;;;;;;;;;;5090786;28;20327;-78
2023/12/18 09:19:16;;;;;;;;;;;;;;;;;;5090771;28;19916;-78
2023/12/18 09:21:41;;;;;;;;;;;;;;;;;;5083828;28;20431;-78
2023/12/18 09:24:07;;;;;;;;;;;;;;;;;;5090844;28;20358;-79
2023/12/18 09:26:32;;;;;;;;;;;;;;;;;;5092091;28;19908;-78
2023/12/18 09:28:59;;;;;;;;;;;;;;;;;;5091898;28;20358;-78
2023/12/18 09:31:24;;;;;;;;;;;;;;;;;;5090503;28;19918;-78
2023/12/18 09:33:49;;;;;;;;;;;;;;;;;;5091894;28;19912;-78
2023/12/18 09:36:14;;;;;;;;;;;;;;;;;;5096018;28;19979;-80
2023/12/18 09:38:39;;;;;;;;;;;;;;;;;;5102042;28;19958;-80
2023/12/18 09:41:04;;;;;;;;;;;;;;;;;;5102131;28;19965;-79
2023/12/18 09:43:30;;;;;;;;;;;;;;;;;;5101686;28;20354;-79
2023/12/18 09:45:55;;;;;;;;;;;;;;;;;;5103038;28;19908;-80
2023/12/18 09:48:20;;;;;;;;;;;;;;;;;;5101697;28;20006;-80
2023/12/18 09:50:45;;;;;;;;;;;;;;;;;;5101881;28;19908;-80
2023/12/18 09:53:12;;;;;;;;;;;;;;;;;;5103284;28;20006;-79
2023/12/18 09:55:37;;;;;;;;;;;;;;;;;;5101868;28;19908;-78
2023/12/18 09:58:02;;;;;;;;;;;;;;;;;;5101597;28;19912;-80
2023/12/18 10:00:27;;;;;;;;;;;;;;;;;;5102455;28;19915;-79
2023/12/18 10:02:52;;;;;;;;;;;;;;;;;;5102689;28;19918;-80
2023/12/18 10:05:17;;;;;;;;;;;;;;;;;;5101690;28;19908;-80
2023/12/18 10:07:42;;;;;;;;;;;;;;;;;;5102356;28;19916;-80
2023/12/18 10:10:08;;;;;;;;;;;;;;;;;;5102555;28;19919;-80
2023/12/18 10:12:33;;;;;;;;;;;;;;;;;;5101395;28;19912;-80
2023/12/18 10:14:58;;;;;;;;;;;;;;;;;;5103039;28;19914;-80
2023/12/18 10:17:23;;;;;;;;;;;;;;;;;;5102513;28;19962;-79
2023/12/18 10:19:48;;;;;;;;;;;;;;;;;;5102688;28;19908;-79
2023/12/18 10:22:13;;;;;;;;;;;;;;;;;;5102881;28;19966;-80
2023/12/18 10:24:38;;;;;;;;;;;;;;;;;;5100881;28;19934;-79
2023/12/18 10:27:03;;;;;;;;;;;;;;;;;;5102006;28;19908;-80
2023/12/18 10:29:28;;;;;;;;;;;;;;;;;;5100581;28;19908;-80
2023/12/18 10:31:54;;;;;;;;;;;;;;;;;;5101394;28;19908;-79
2023/12/18 10:34:19;;;;;;;;;;;;;;;;;;5101763;28;19916;-80
2023/12/18 10:36:44;;;;;;;;;;;;;;;;;;5102648;28;19908;-79
2023/12/18 10:39:09;;;;;;;;;;;;;;;;;;5101712;28;19908;-79
2023/12/18 10:41:35;;;;;;;;;;;;;;;;;;5101742;28;19915;-80
2023/12/18 10:44:00;;;;;;;;;;;;;;;;;;5100226;28;19908;-79
2023/12/18 10:46:25;;;;;;;;;;;;;;;;;;5101915;28;19943;-79
2023/12/18 10:48:50;;;;;;;;;;;;;;;;;;5100031;28;19912;-79
2023/12/18 10:51:15;;;;;;;;;;;;;;;;;;5101237;28;19908;-79
2023/12/18 10:53:40;;;;;;;;;;;;;;;;;;5100486;28;19967;-80
2023/12/18 10:56:05;;;;;;;;;;;;;;;;;;5101715;28;19943;-78
2023/12/18 10:58:30;;;;;;;;;;;;;;;;;;5100802;28;19959;-80
2023/12/18 11:00:56;;;;;;;;;;;;;;;;;;5093282;28;19913;-80
2023/12/18 11:03:26;;;;;;;;;;;;;;;;;;5101012;28;19912;-80
2023/12/18 11:05:52;;;;;;;;;;;;;;;;;;5101608;28;20399;-79
2023/12/18 11:08:17;;;;;;;;;;;;;;;;;;5101238;28;19987;-80
2023/12/18 11:10:42;;;;;;;;;;;;;;;;;;5100565;28;19908;-79
2023/12/18 11:13:07;;;;;;;;;;;;;;;;;;5099545;28;19915;-80
2023/12/18 11:15:32;;;;;;;;;;;;;;;;;;5099677;28;19909;-79
2023/12/18 11:17:58;;;;;;;;;;;;;;;;;;5100483;28;19938;-80
2023/12/18 11:20:24;;;;;;;;;;;;;;;;;;5099995;28;19919;-79
2023/12/18 11:22:49;;;;;;;;;;;;;;;;;;5100845;28;19912;-79
2023/12/18 11:25:14;;;;;;;;;;;;;;;;;;5098831;28;20132;-80
2023/12/18 11:27:39;;;;;;;;;;;;;;;;;;5093595;28;19915;-78
2023/12/18 11:30:04;;;;;;;;;;;;;;;;;;5093909;28;20174;-78
2023/12/18 11:32:29;;;;;;;;;;;;;;;;;;5092476;28;20288;-78
2023/12/18 11:34:54;;;;;;;;;;;;;;;;;;5092706;28;20214;-78
2023/12/18 11:37:19;;;;;;;;;;;;;;;;;;5093580;28;20024;-78
2023/12/18 11:39:45;;;;;;;;;;;;;;;;;;5092849;28;20206;-78
2023/12/18 11:42:10;;;;;;;;;;;;;;;;;;5093586;28;20354;-79
2023/12/18 11:44:35;;;;;;;;;;;;;;;;;;5092499;28;19999;-78
2023/12/18 11:47:00;;;;;;;;;;;;;;;;;;5092355;28;19908;-79
2023/12/18 11:49:26;;;;;;;;;;;;;;;;;;5093681;28;19908;-80
2023/12/18 11:51:51;;;;;;;;;;;;;;;;;;5093473;28;19912;-78
2023/12/18 11:54:16;;;;;;;;;;;;;;;;;;5094500;28;19914;-79
2023/12/18 11:56:41;;;;;;;;;;;;;;;;;;5095234;28;19965;-79
2023/12/18 11:59:06;;;;;;;;;;;;;;;;;;5094883;28;19908;-78
2023/12/18 12:01:31;;;;;;;;;;;;;;;;;;5092921;28;20341;-79
2023/12/18 12:03:56;;;;;;;;;;;;;;;;;;5093742;28;19919;-79
2023/12/18 12:06:21;;;;;;;;;;;;;;;;;;5086582;28;19958;-79
2023/12/18 12:08:47;;;;;;;;;;;;;;;;;;5094896;28;19908;-79
2023/12/18 12:11:12;;;;;;;;;;;;;;;;;;5094774;28;20277;-79
2023/12/18 12:13:37;;;;;;;;;;;;;;;;;;5093483;28;19908;-78
2023/12/18 12:16:03;;;;;;;;;;;;;;;;;;5092633;28;19955;-79
2023/12/18 12:18:28;;;;;;;;;;;;;;;;;;5094248;28;19908;-79
2023/12/18 12:20:53;;;;;;;;;;;;;;;;;;5093868;28;19915;-79
2023/12/18 12:23:18;;;;;;;;;;;;;;;;;;5093510;28;19912;-80
2023/12/18 12:25:43;;;;;;;;;;;;;;;;;;5093876;28;19908;-79
2023/12/18 12:28:09;;;;;;;;;;;;;;;;;;5093806;28;19908;-79
2023/12/18 12:30:34;;;;;;;;;;;;;;;;;;5093847;28;20316;-79
2023/12/18 12:32:59;;;;;;;;;;;;;;;;;;5095054;28;19912;-79
2023/12/18 12:35:24;;;;;;;;;;;;;;;;;;5095584;28;20331;-78
2023/12/18 12:37:49;;;;;;;;;;;;;;;;;;5095297;28;19915;-78
2023/12/18 12:40:14;;;;;;;;;;;;;;;;;;5093316;28;19915;-79
2023/12/18 12:42:41;;;;;;;;;;;;;;;;;;5093105;28;19912;-78
2023/12/18 12:45:06;;;;;;;;;;;;;;;;;;5095043;28;19908;-79
2023/12/18 12:47:32;;;;;;;;;;;;;;;;;;5093080;28;20270;-79
2023/12/18 12:49:57;;;;;;;;;;;;;;;;;;5093841;28;19954;-79
2023/12/18 12:52:22;;;;;;;;;;;;;;;;;;5093660;28;19927;-79
2023/12/18 12:54:47;;;;;;;;;;;;;;;;;;5092432;28;20003;-79
2023/12/18 12:57:12;;;;;;;;;;;;;;;;;;5091946;28;19950;-79
2023/12/18 12:59:39;;;;;;;;;;;;;;;;;;5091850;28;20281;-78
2023/12/18 13:02:04;;;;;;;;;;;;;;;;;;5091605;28;20355;-79
2023/12/18 13:04:29;;;;;;;;;;;;;;;;;;5092802;28;19909;-79
2023/12/18 13:06:54;;;;;;;;;;;;;;;;;;5092553;28;19908;-78
2023/12/18 13:09:19;;;;;;;;;;;;;;;;;;5093234;28;19953;-80
2023/12/18 13:11:46;;;;;;;;;;;;;;;;;;5098973;28;19930;-78
2023/12/18 13:14:11;;;;;;;;;;;;;;;;;;5100153;28;19947;-79
2023/12/18 13:16:37;;;;;;;;;;;;;;;;;;5101790;28;19930;-79
2023/12/18 13:19:02;;;;;;;;;;;;;;;;;;5099856;28;20015;-80
2023/12/18 13:21:27;;;;;;;;;;;;;;;;;;5102021;28;19908;-79
2023/12/18 13:23:52;;;;;;;;;;;;;;;;;;5100228;28;20345;-79
2023/12/18 13:26:17;;;;;;;;;;;;;;;;;;5100523;28;19915;-79
2023/12/18 13:28:42;;;;;;;;;;;;;;;;;;5102323;28;19919;-80
2023/12/18 13:31:08;;;;;;;;;;;;;;;;;;5100409;28;20269;-79
2023/12/18 13:33:33;;;;;;;;;;;;;;;;;;5101538;28;19908;-80
2023/12/18 13:35:58;;;;;;;;;;;;;;;;;;5100203;28;19914;-79
2023/12/18 13:38:23;;;;;;;;;;;;;;;;;;5101568;28;19916;-80
2023/12/18 13:40:48;;;;;;;;;;;;;;;;;;5101516;28;19915;-80
2023/12/18 13:43:13;;;;;;;;;;;;;;;;;;5099947;28;19918;-80
2023/12/18 13:45:38;;;;;;;;;;;;;;;;;;5101070;28;19915;-80
2023/12/18 13:48:03;;;;;;;;;;;;;;;;;;5101343;28;19909;-80
2023/12/18 13:50:28;;;;;;;;;;;;;;;;;;5101164;28;20003;-79
2023/12/18 13:52:54;;;;;;;;;;;;;;;;;;5100527;28;20007;-79
2023/12/18 13:55:19;;;;;;;;;;;;;;;;;;5101329;28;19909;-80
2023/12/18 13:57:44;;;;;;;;;;;;;;;;;;5099276;28;19914;-79
2023/12/18 14:00:09;;;;;;;;;;;;;;;;;;5101086;28;19923;-80
2023/12/18 14:02:35;;;;;;;;;;;;;;;;;;5100906;28;20007;-79
2023/12/18 14:05:02;;;;;;;;;;;;;;;;;;5099769;28;20003;-80
2023/12/18 14:07:27;;;;;;;;;;;;;;;;;;5099127;28;20388;-80
2023/12/18 14:09:53;;;;;;;;;;;;;;;;;;5099084;28;19908;-79
2023/12/18 14:12:18;;;;;;;;;;;;;;;;;;5100825;28;19908;-80
2023/12/18 14:14:43;;;;;;;;;;;;;;;;;;5101327;28;19908;-79
2023/12/18 14:17:08;;;;;;;;;;;;;;;;;;5098906;28;19908;-79
2023/12/18 14:19:34;;;;;;;;;;;;;;;;;;5100369;28;19909;-78
2023/12/18 14:21:59;;;;;;;;;;;;;;;;;;5099433;28;20309;-80
2023/12/18 14:24:24;;;;;;;;;;;;;;;;;;5099972;28;20370;-79
2023/12/18 14:26:49;;;;;;;;;;;;;;;;;;5099809;28;20281;-80
2023/12/18 14:29:14;;;;;;;;;;;;;;;;;;5098201;28;19915;-79
2023/12/18 14:31:40;;;;;;;;;;;;;;;;;;5099825;28;19908;-79
2023/12/18 14:34:05;;;;;;;;;;;;;;;;;;5098283;28;19927;-80
2023/12/18 14:36:30;;;;;;;;;;;;;;;;;;5099938;28;19930;-80
2023/12/18 14:38:56;;;;;;;;;;;;;;;;;;5098067;28;19961;-80
2023/12/18 14:41:21;;;;;;;;;;;;;;;;;;5097745;28;19974;-80
2023/12/18 14:43:46;;;;;;;;;;;;;;;;;;5099908;28;20020;-79
2023/12/18 14:46:11;;;;;;;;;;;;;;;;;;5099401;28;19985;-79
2023/12/18 14:48:36;;;;;;;;;;;;;;;;;;5099733;28;19908;-79
2023/12/18 14:51:01;;;;;;;;;;;;;;;;;;5097318;28;20433;-79
2023/12/18 14:53:26;;;;;;;;;;;;;;;;;;5098940;28;19916;-79
2023/12/18 14:55:51;;;;;;;;;;;;;;;;;;5097987;28;19908;-80
2023/12/18 14:58:16;;;;;;;;;;;;;;;;;;5099744;28;20391;-79
2023/12/18 15:00:42;;;;;;;;;;;;;;;;;;5097378;28;20378;-80
2023/12/18 15:03:07;;;;;;;;;;;;;;;;;;5094843;28;19920;-79
2023/12/18 15:05:32;;;;;;;;;;;;;;;;;;5096014;28;19929;-77
2023/12/18 15:07:57;;;;;;;;;;;;;;;;;;5096494;28;19915;-79
2023/12/18 15:10:22;;;;;;;;;;;;;;;;;;5094193;28;19908;-79
2023/12/18 15:12:48;;;;;;;;;;;;;;;;;;5095516;28;19970;-79
2023/12/18 15:15:13;;;;;;;;;;;;;;;;;;5093947;28;19912;-79
2023/12/18 15:17:38;;;;;;;;;;;;;;;;;;5095272;28;19940;-79
2023/12/18 15:20:03;;;;;;;;;;;;;;;;;;5094793;28;19962;-79
2023/12/18 15:22:28;;;;;;;;;;;;;;;;;;5095967;28;20003;-79
2023/12/18 15:24:53;;;;;;;;;;;;;;;;;;5094776;28;19912;-79
2023/12/18 15:27:18;;;;;;;;;;;;;;;;;;5095970;28;19912;-78
2023/12/18 15:29:43;;;;;;;;;;;;;;;;;;5096125;28;19931;-78
2023/12/18 15:32:09;;;;;;;;;;;;;;;;;;5095371;28;20330;-79
2023/12/18 15:34:35;;;;;;;;;;;;;;;;;;5095191;28;19934;-79
2023/12/18 15:37:00;;;;;;;;;;;;;;;;;;5094004;28;19908;-79
2023/12/18 15:39:25;;;;;;;;;;;;;;;;;;5094233;28;20037;-78
2023/12/18 15:41:51;;;;;;;;;;;;;;;;;;5095304;28;19908;-78
2023/12/18 15:44:16;;;;;;;;;;;;;;;;;;5095801;28;19915;-79
2023/12/18 15:46:41;;;;;;;;;;;;;;;;;;5094441;28;19909;-79
2023/12/18 15:49:06;;;;;;;;;;;;;;;;;;5093687;28;19930;-79
2023/12/18 15:51:33;;;;;;;;;;;;;;;;;;5093619;28;19912;-79
2023/12/18 15:53:58;;;;;;;;;;;;;;;;;;5093881;28;19948;-79
2023/12/18 15:56:23;;;;;;;;;;;;;;;;;;5095294;28;19909;-79
2023/12/18 15:58:48;;;;;;;;;;;;;;;;;;5093643;28;19952;-78
2023/12/18 16:01:13;;;;;;;;;;;;;;;;;;5094602;28;19908;-79
2023/12/18 16:03:42;;;;;;;;;;;;;;;;;;5094605;28;19912;-78
2023/12/18 16:06:07;;;;;;;;;;;;;;;;;;5093036;28;19908;-78
2023/12/18 16:08:32;;;;;;;;;;;;;;;;;;5094292;28;19919;-79
2023/12/18 16:10:57;;;;;;;;;;;;;;;;;;5083709;28;19923;-78
2023/12/18 16:13:23;;;;;;;;;;;;;;;;;;5093077;28;19908;-79
2023/12/18 16:15:48;;;;;;;;;;;;;;;;;;5092397;28;19914;-78
2023/12/18 16:18:13;;;;;;;;;;;;;;;;;;5091585;28;19969;-78
2023/12/18 16:20:38;;;;;;;;;;;;;;;;;;5091567;28;19924;-78
2023/12/18 16:23:03;;;;;;;;;;;;;;;;;;5091390;28;19919;-78
2023/12/18 16:25:29;;;;;;;;;;;;;;;;;;5091684;28;19909;-78
2023/12/18 16:27:54;;;;;;;;;;;;;;;;;;5091744;28;19908;-78
2023/12/18 16:30:20;;;;;;;;;;;;;;;;;;5092908;28;19908;-77